Time,TemperatureF,DewpointF,PressureIn,WindDirection,WindDirectionDegrees,WindSpeedMPH,WindSpeedGustMPH,Humidity,HourlyPrecipIn,Conditions,Clouds,dailyrainin,SoftwareType,DateUTC
2013-01-03 00:05:00,55.2,53.2,29.91,NE,44,0.0,0.0,93,0.00,,,0.00,HomebrewedOnLinux,2013-01-03 05:05:00,
2013-01-03 00:10:00,55.0,53.1,29.91,North,0,0.0,0.0,93,0.00,,,0.00,HomebrewedOnLinux,2013-01-03 05:10:00,
2013-01-03 00:15:00,55.0,53.1,29.91,West,262,0.0,0.0,93,0.00,,,0.00,HomebrewedOnLinux,2013-01-03 05:15:00,
2013-01-03 00:20:00,55.0,53.0,29.91,WNW,293,0.0,0.0,93,0.00,,,0.00,HomebrewedOnLinux,2013-01-03 05:20:00,
2013-01-03 00:25:00,55.0,52.8,29.88,West,274,0.0,0.0,92,0.00,,,0.00,HomebrewedOnLinux,2013-01-03 05:25:00,
2013-01-03 00:30:00,55.0,53.1,29.88,West,268,0.0,2.0,93,0.00,,,0.00,HomebrewedOnLinux,2013-01-03 05:30:00,
2013-01-03 00:35:00,54.9,52.9,29.88,West,274,2.0,4.0,93,0.00,,,0.00,HomebrewedOnLinux,2013-01-03 05:35:00,
2013-01-03 00:40:00,54.9,52.9,29.85,West,269,2.0,4.0,93,0.00,,,0.00,HomebrewedOnLinux,2013-01-03 05:40:00,
2013-01-03 00:45:00,54.9,52.9,29.85,WNW,287,1.0,2.0,93,0.00,,,0.00,HomebrewedOnLinux,2013-01-03 05:45:00,
2013-01-03 00:50:00,54.9,52.9,29.85,West,268,1.0,2.0,93,0.00,,,0.00,HomebrewedOnLinux,2013-01-03 05:50:00,
2013-01-03 00:55:00,54.9,52.9,29.88,WNW,287,2.0,4.0,93,0.00,,,0.00,HomebrewedOnLinux,2013-01-03 05:55:00,
2013-01-03 01:00:00,54.9,52.9,29.88,West,270,1.0,3.0,93,0.00,,,0.00,HomebrewedOnLinux,2013-01-03 06:00:00,
2013-01-03 01:05:00,54.9,52.7,29.88,West,272,2.0,3.0,92,0.00,,,0.00,HomebrewedOnLinux,2013-01-03 06:05:00,
2013-01-03 01:10:00,54.7,52.4,29.85,West,278,1.0,2.0,92,0.00,,,0.00,HomebrewedOnLinux,2013-01-03 06:10:00,
2013-01-03 01:15:00,54.7,52.4,29.85,West,273,1.0,2.0,92,0.00,,,0.00,HomebrewedOnLinux,2013-01-03 06:15:00,
2013-01-03 01:20:00,54.7,52.5,29.85,WNW,292,1.0,2.0,92,0.00,,,0.00,HomebrewedOnLinux,2013-01-03 06:20:00,
2013-01-03 01:25:00,54.7,52.7,29.85,WNW,283,0.0,2.0,93,0.00,,,0.00,HomebrewedOnLinux,2013-01-03 06:25:00,
2013-01-03 01:30:00,54.7,52.7,29.85,WNW,291,0.0,2.0,93,0.00,,,0.00,HomebrewedOnLinux,2013-01-03 06:30:00,
2013-01-03 01:35:00,54.7,52.7,29.85,WNW,300,0.0,0.0,93,0.00,,,0.00,HomebrewedOnLinux,2013-01-03 06:35:00,
2013-01-03 01:40:00,54.7,52.7,29.91,WNW,293,0.0,0.0,93,0.00,,,0.00,HomebrewedOnLinux,2013-01-03 06:40:00,
2013-01-03 01:45:00,54.7,52.7,29.91,West,270,0.0,0.0,93,0.00,,,0.00,HomebrewedOnLinux,2013-01-03 06:45:00,
2013-01-03 01:50:00,54.7,52.7,29.91,West,270,0.0,0.0,93,0.00,,,0.00,HomebrewedOnLinux,2013-01-03 06:50:00,
2013-01-03 01:55:00,54.5,52.5,29.91,West,270,0.0,0.0,93,0.00,,,0.00,HomebrewedOnLinux,2013-01-03 06:55:00,
2013-01-03 02:00:00,54.5,52.5,29.91,WNW,296,0.0,1.0,93,0.00,,,0.00,HomebrewedOnLinux,2013-01-03 07:00:00,
2013-01-03 02:05:00,54.5,52.2,29.91,North,0,1.0,3.0,92,0.00,,,0.00,HomebrewedOnLinux,2013-01-03 07:05:00,
2013-01-03 02:10:00,54.3,51.7,29.88,NNE,26,0.0,2.0,91,0.00,,,0.00,HomebrewedOnLinux,2013-01-03 07:10:00,
2013-01-03 02:15:00,54.1,51.1,29.88,NNW,347,0.0,1.0,90,0.00,,,0.00,HomebrewedOnLinux,2013-01-03 07:15:00,
2013-01-03 02:20:00,54.0,50.7,29.88,NNW,334,0.0,0.0,89,0.00,,,0.00,HomebrewedOnLinux,2013-01-03 07:20:00,
2013-01-03 02:25:00,53.8,50.3,29.91,NNE,22,0.0,1.0,88,0.00,,,0.00,HomebrewedOnLinux,2013-01-03 07:25:00,
2013-01-03 02:30:00,53.8,50.3,29.91,NNE,22,0.0,0.0,88,0.00,,,0.00,HomebrewedOnLinux,2013-01-03 07:30:00,
2013-01-03 02:35:00,53.6,49.9,29.91,NNE,22,0.0,1.0,87,0.00,,,0.00,HomebrewedOnLinux,2013-01-03 07:35:00,
2013-01-03 02:40:00,53.6,49.8,29.91,NNE,22,0.0,0.0,87,0.00,,,0.00,HomebrewedOnLinux,2013-01-03 07:40:00,
2013-01-03 02:45:00,53.4,49.6,29.91,NNE,22,0.0,0.0,87,0.00,,,0.00,HomebrewedOnLinux,2013-01-03 07:45:00,
2013-01-03 02:50:00,53.4,49.5,29.91,NNE,22,0.0,0.0,86,0.00,,,0.00,HomebrewedOnLinux,2013-01-03 07:50:00,
2013-01-03 02:55:00,53.4,49.3,29.91,NNE,22,0.0,0.0,86,0.00,,,0.00,HomebrewedOnLinux,2013-01-03 07:55:00,
2013-01-03 03:00:00,53.2,49.2,29.91,NNE,22,0.0,0.0,86,0.00,,,0.00,HomebrewedOnLinux,2013-01-03 08:00:00,
2013-01-03 03:05:00,53.2,49.2,29.91,NNE,22,0.0,0.0,86,0.00,,,0.00,HomebrewedOnLinux,2013-01-03 08:05:00,
2013-01-03 03:10:00,53.1,49.0,29.91,NNE,22,0.0,0.0,86,0.00,,,0.00,HomebrewedOnLinux,2013-01-03 08:10:00,
2013-01-03 03:15:00,53.1,49.0,29.91,NE,35,1.0,2.0,86,0.00,,,0.00,HomebrewedOnLinux,2013-01-03 08:15:00,
2013-01-03 03:20:00,53.1,49.0,29.91,East,95,0.0,2.0,86,0.00,,,0.00,HomebrewedOnLinux,2013-01-03 08:20:00,
2013-01-03 03:25:00,52.9,48.7,29.91,NNE,25,0.0,2.0,86,0.00,,,0.00,HomebrewedOnLinux,2013-01-03 08:25:00,
2013-01-03 03:30:00,52.9,48.7,29.91,NE,41,1.0,2.0,86,0.00,,,0.00,HomebrewedOnLinux,2013-01-03 08:30:00,
2013-01-03 03:35:00,52.7,48.6,29.91,NE,43,0.0,2.0,86,0.00,,,0.00,HomebrewedOnLinux,2013-01-03 08:35:00,
2013-01-03 03:40:00,52.5,48.2,29.91,NNW,341,0.0,0.0,85,0.00,,,0.00,HomebrewedOnLinux,2013-01-03 08:40:00,
2013-01-03 03:45:00,52.5,48.1,29.91,NNW,338,0.0,0.0,85,0.00,,,0.00,HomebrewedOnLinux,2013-01-03 08:45:00,
2013-01-03 03:50:00,52.3,47.9,29.91,North,5,0.0,2.0,85,0.00,,,0.00,HomebrewedOnLinux,2013-01-03 08:50:00,
2013-01-03 03:55:00,52.2,47.6,29.91,NE,37,1.0,2.0,84,0.00,,,0.00,HomebrewedOnLinux,2013-01-03 08:55:00,
2013-01-03 04:00:00,52.2,47.8,29.91,NE,45,1.0,2.0,85,0.00,,,0.00,HomebrewedOnLinux,2013-01-03 09:00:00,
2013-01-03 04:05:00,52.0,47.6,29.91,ENE,57,2.0,3.0,85,0.00,,,0.00,HomebrewedOnLinux,2013-01-03 09:05:00,
2013-01-03 04:10:00,51.8,47.4,29.91,ENE,57,1.0,3.0,85,0.00,,,0.00,HomebrewedOnLinux,2013-01-03 09:10:00,
2013-01-03 04:15:00,51.6,47.3,29.91,NNE,19,1.0,3.0,85,0.00,,,0.00,HomebrewedOnLinux,2013-01-03 09:15:00,
2013-01-03 04:20:00,51.4,47.1,29.91,NE,47,1.0,2.0,85,0.00,,,0.00,HomebrewedOnLinux,2013-01-03 09:20:00,
2013-01-03 04:25:00,51.4,47.4,29.91,NNE,22,0.0,1.0,86,0.00,,,0.00,HomebrewedOnLinux,2013-01-03 09:25:00,
2013-01-03 04:30:00,51.3,47.2,29.91,ENE,57,0.0,1.0,86,0.00,,,0.00,HomebrewedOnLinux,2013-01-03 09:30:00,
2013-01-03 04:35:00,51.3,47.2,29.91,ENE,57,1.0,2.0,86,0.00,,,0.00,HomebrewedOnLinux,2013-01-03 09:35:00,
2013-01-03 04:40:00,50.9,46.9,29.91,NE,43,0.0,0.0,86,0.00,,,0.00,HomebrewedOnLinux,2013-01-03 09:40:00,
2013-01-03 04:45:00,50.7,46.7,29.91,North,7,0.0,0.0,86,0.00,,,0.00,HomebrewedOnLinux,2013-01-03 09:45:00,
2013-01-03 04:50:00,50.5,46.7,29.91,North,11,0.0,2.0,87,0.00,,,0.00,HomebrewedOnLinux,2013-01-03 09:50:00,
2013-01-03 04:55:00,50.2,46.5,29.91,NE,42,1.0,2.0,87,0.00,,,0.00,HomebrewedOnLinux,2013-01-03 09:55:00,
2013-01-03 05:00:00,50.2,46.8,29.91,ENE,57,1.0,3.0,88,0.00,,,0.00,HomebrewedOnLinux,2013-01-03 10:00:00,
2013-01-03 05:05:00,50.0,46.6,29.91,NE,54,2.0,4.0,88,0.00,,,0.00,HomebrewedOnLinux,2013-01-03 10:05:00,
2013-01-03 05:10:00,49.8,46.4,29.91,NE,41,0.0,0.0,88,0.00,,,0.00,HomebrewedOnLinux,2013-01-03 10:10:00,
2013-01-03 05:15:00,49.8,46.4,29.91,NNE,16,0.0,0.0,88,0.00,,,0.00,HomebrewedOnLinux,2013-01-03 10:15:00,
2013-01-03 05:20:00,49.6,46.2,29.91,NNE,21,0.0,2.0,88,0.00,,,0.00,HomebrewedOnLinux,2013-01-03 10:20:00,
2013-01-03 05:25:00,49.6,46.2,29.91,North,353,0.0,1.0,88,0.00,,,0.00,HomebrewedOnLinux,2013-01-03 10:25:00,
2013-01-03 05:30:00,49.5,46.2,29.91,NNW,338,0.0,0.0,89,0.00,,,0.00,HomebrewedOnLinux,2013-01-03 10:30:00,
2013-01-03 05:35:00,49.5,46.4,29.91,NNW,338,0.0,1.0,89,0.00,,,0.00,HomebrewedOnLinux,2013-01-03 10:35:00,
2013-01-03 05:40:00,49.5,46.4,29.91,NNW,338,0.0,0.0,89,0.00,,,0.00,HomebrewedOnLinux,2013-01-03 10:40:00,
2013-01-03 05:45:00,49.3,46.3,29.91,NNW,338,0.0,0.0,89,0.00,,,0.00,HomebrewedOnLinux,2013-01-03 10:45:00,
2013-01-03 05:50:00,49.3,46.5,29.91,NNW,338,0.0,0.0,90,0.00,,,0.00,HomebrewedOnLinux,2013-01-03 10:50:00,
2013-01-03 05:55:00,49.3,46.5,29.91,NNW,338,0.0,0.0,90,0.00,,,0.00,HomebrewedOnLinux,2013-01-03 10:55:00,
2013-01-03 06:00:00,49.3,46.5,29.91,NNW,338,0.0,0.0,90,0.00,,,0.00,HomebrewedOnLinux,2013-01-03 11:00:00,
2013-01-03 06:05:00,49.1,46.2,29.91,NNW,338,0.0,0.0,90,0.00,,,0.00,HomebrewedOnLinux,2013-01-03 11:05:00,
2013-01-03 06:10:00,49.1,46.0,29.94,NNW,338,0.0,0.0,89,0.00,,,0.00,HomebrewedOnLinux,2013-01-03 11:10:00,
2013-01-03 06:15:00,49.1,46.2,29.94,NNW,338,0.0,0.0,90,0.00,,,0.00,HomebrewedOnLinux,2013-01-03 11:15:00,
2013-01-03 06:20:00,49.1,46.3,29.94,NNW,338,0.0,0.0,90,0.00,,,0.00,HomebrewedOnLinux,2013-01-03 11:20:00,
2013-01-03 06:25:00,48.9,46.1,29.94,NNW,338,0.0,0.0,90,0.00,,,0.00,HomebrewedOnLinux,2013-01-03 11:25:00,
2013-01-03 06:30:00,49.1,46.3,29.94,NNW,338,0.0,0.0,90,0.00,,,0.00,HomebrewedOnLinux,2013-01-03 11:30:00,
2013-01-03 06:35:00,48.9,46.1,29.94,NNW,338,0.0,0.0,90,0.00,,,0.00,HomebrewedOnLinux,2013-01-03 11:35:00,
2013-01-03 06:40:00,49.1,46.3,29.94,NNW,338,0.0,0.0,90,0.00,,,0.00,HomebrewedOnLinux,2013-01-03 11:40:00,
2013-01-03 06:45:00,48.9,46.1,29.94,NNW,338,0.0,0.0,90,0.00,,,0.00,HomebrewedOnLinux,2013-01-03 11:45:00,
2013-01-03 06:50:00,48.9,46.1,29.94,NNW,338,0.0,0.0,90,0.00,,,0.00,HomebrewedOnLinux,2013-01-03 11:50:00,
2013-01-03 06:55:00,48.9,46.1,29.94,NNW,348,0.0,0.0,90,0.00,,,0.00,HomebrewedOnLinux,2013-01-03 11:55:00,
2013-01-03 07:00:00,48.7,45.7,29.94,North,0,0.0,0.0,89,0.00,,,0.00,HomebrewedOnLinux,2013-01-03 12:00:00,
2013-01-03 07:05:00,48.7,45.6,29.94,North,0,0.0,0.0,89,0.00,,,0.00,HomebrewedOnLinux,2013-01-03 12:05:00,
2013-01-03 07:10:00,48.7,45.5,29.94,North,0,0.0,0.0,88,0.00,,,0.00,HomebrewedOnLinux,2013-01-03 12:10:00,
2013-01-03 07:15:00,48.7,45.4,29.94,NNW,332,0.0,0.0,88,0.00,,,0.00,HomebrewedOnLinux,2013-01-03 12:15:00,
2013-01-03 07:20:00,48.6,45.2,29.94,NW,315,0.0,0.0,88,0.00,,,0.00,HomebrewedOnLinux,2013-01-03 12:20:00,
2013-01-03 07:25:00,48.6,45.3,29.94,NW,315,0.0,0.0,88,0.00,,,0.00,HomebrewedOnLinux,2013-01-03 12:25:00,
2013-01-03 07:35:00,48.4,45.5,29.94,NW,315,0.0,0.0,90,0.00,,,0.00,HomebrewedOnLinux,2013-01-03 12:35:00,
2013-01-03 07:40:00,48.2,45.4,29.94,NW,315,0.0,0.0,90,0.00,,,0.00,HomebrewedOnLinux,2013-01-03 12:40:00,
2013-01-03 07:50:00,48.2,45.6,29.94,West,279,1.0,2.0,91,0.00,,,0.00,HomebrewedOnLinux,2013-01-03 12:50:00,
2013-01-03 07:55:00,48.0,45.6,29.94,WNW,287,1.0,2.0,91,0.00,,,0.00,HomebrewedOnLinux,2013-01-03 12:55:00,
2013-01-03 08:00:00,48.0,45.8,29.94,West,279,2.0,3.0,92,0.00,,,0.00,HomebrewedOnLinux,2013-01-03 13:00:00,
2013-01-03 08:05:00,48.0,45.8,29.94,WNW,293,0.0,2.0,92,0.00,,,0.00,HomebrewedOnLinux,2013-01-03 13:05:00,
2013-01-03 08:10:00,48.0,45.8,29.94,WNW,293,0.0,0.0,92,0.00,,,0.00,HomebrewedOnLinux,2013-01-03 13:10:00,
2013-01-03 08:15:00,48.0,45.8,29.94,NNE,21,0.0,0.0,92,0.00,,,0.00,HomebrewedOnLinux,2013-01-03 13:15:00,
2013-01-03 08:20:00,48.0,45.8,29.94,ENE,57,0.0,2.0,92,0.00,,,0.00,HomebrewedOnLinux,2013-01-03 13:20:00,
2013-01-03 08:25:00,48.0,45.8,29.94,North,356,0.0,1.0,92,0.00,,,0.00,HomebrewedOnLinux,2013-01-03 13:25:00,
2013-01-03 08:30:00,48.0,45.8,29.94,NE,54,0.0,1.0,92,0.00,,,0.00,HomebrewedOnLinux,2013-01-03 13:30:00,
2013-01-03 08:35:00,48.0,46.0,29.94,ENE,61,0.0,0.0,93,0.00,,,0.00,HomebrewedOnLinux,2013-01-03 13:35:00,
2013-01-03 08:40:00,48.0,45.9,29.94,NNE,30,0.0,2.0,92,0.00,,,0.00,HomebrewedOnLinux,2013-01-03 13:40:00,
2013-01-03 08:45:00,48.0,46.0,29.94,WNW,286,0.0,0.0,93,0.00,,,0.00,HomebrewedOnLinux,2013-01-03 13:45:00,
2013-01-03 08:50:00,48.2,46.0,29.94,NW,322,0.0,0.0,92,0.00,,,0.00,HomebrewedOnLinux,2013-01-03 13:50:00,
2013-01-03 08:55:00,48.4,46.2,29.94,NW,310,0.0,0.0,92,0.00,,,0.00,HomebrewedOnLinux,2013-01-03 13:55:00,
2013-01-03 09:00:00,48.4,46.2,29.94,WNW,293,0.0,0.0,92,0.00,,,0.00,HomebrewedOnLinux,2013-01-03 14:00:00,
2013-01-03 09:05:00,48.6,46.3,29.94,WNW,293,0.0,1.0,92,0.00,,,0.00,HomebrewedOnLinux,2013-01-03 14:05:00,
2013-01-03 09:10:00,48.7,46.5,29.94,West,270,2.0,2.0,92,0.00,,,0.00,HomebrewedOnLinux,2013-01-03 14:10:00,
2013-01-03 09:15:00,48.7,46.5,29.94,SW,235,1.0,2.0,92,0.00,,,0.00,HomebrewedOnLinux,2013-01-03 14:15:00,
2013-01-03 09:20:00,48.7,46.5,29.94,SW,225,1.0,1.0,92,0.00,,,0.00,HomebrewedOnLinux,2013-01-03 14:20:00,
2013-01-03 09:25:00,48.7,46.5,29.94,North,-999,-999.0,-999.0,92,0.00,,,0.00,HomebrewedOnLinux,2013-01-03 14:25:00,
2013-01-03 09:30:00,48.9,46.7,29.94,North,-999,-999.0,-999.0,92,0.00,,,0.00,HomebrewedOnLinux,2013-01-03 14:30:00,
2013-01-03 09:35:00,48.9,46.5,29.94,North,-999,-999.0,-999.0,91,0.00,,,0.00,HomebrewedOnLinux,2013-01-03 14:35:00,
2013-01-03 09:40:00,48.9,46.4,29.97,NE,45,1.0,2.0,91,0.00,,,0.00,HomebrewedOnLinux,2013-01-03 14:40:00,
2013-01-03 09:45:00,48.9,46.4,29.97,North,-999,-999.0,-999.0,91,0.00,,,0.00,HomebrewedOnLinux,2013-01-03 14:45:00,
2013-01-03 09:50:00,48.9,46.1,29.97,West,259,0.0,0.0,90,0.00,,,0.00,HomebrewedOnLinux,2013-01-03 14:50:00,
2013-01-03 09:55:00,49.1,46.5,29.97,NW,309,0.0,0.0,91,0.00,,,0.00,HomebrewedOnLinux,2013-01-03 14:55:00,
2013-01-03 10:00:00,49.1,46.6,29.97,NNE,26,0.0,0.0,91,0.00,,,0.00,HomebrewedOnLinux,2013-01-03 15:00:00,
2013-01-03 10:05:00,49.3,46.7,29.97,North,351,0.0,0.0,91,0.00,,,0.00,HomebrewedOnLinux,2013-01-03 15:05:00,
2013-01-03 10:10:00,49.5,46.9,29.97,West,274,0.0,0.0,91,0.00,,,0.00,HomebrewedOnLinux,2013-01-03 15:10:00,
2013-01-03 10:15:00,49.6,47.1,29.97,ENE,68,0.0,0.0,91,0.00,,,0.00,HomebrewedOnLinux,2013-01-03 15:15:00,
2013-01-03 10:20:00,49.8,47.0,29.97,WNW,293,0.0,0.0,90,0.00,,,0.00,HomebrewedOnLinux,2013-01-03 15:20:00,
2013-01-03 10:25:00,49.8,46.8,29.94,NE,37,0.0,2.0,89,0.00,,,0.00,HomebrewedOnLinux,2013-01-03 15:25:00,
2013-01-03 10:30:00,50.0,47.2,29.94,NE,42,0.0,2.0,90,0.00,,,0.00,HomebrewedOnLinux,2013-01-03 15:30:00,
2013-01-03 10:35:00,50.0,46.9,29.94,North,359,1.0,2.0,89,0.00,,,0.00,HomebrewedOnLinux,2013-01-03 15:35:00,
2013-01-03 10:40:00,50.2,46.8,29.97,North,9,1.0,3.0,88,0.00,,,0.00,HomebrewedOnLinux,2013-01-03 15:40:00,
2013-01-03 10:45:00,50.0,46.4,29.97,WNW,297,0.0,0.0,87,0.00,,,0.00,HomebrewedOnLinux,2013-01-03 15:45:00,
2013-01-03 10:50:00,50.0,46.0,29.97,North,1,0.0,0.0,86,0.00,,,0.00,HomebrewedOnLinux,2013-01-03 15:50:00,
2013-01-03 10:55:00,50.2,46.2,29.97,NNW,338,0.0,0.0,86,0.00,,,0.00,HomebrewedOnLinux,2013-01-03 15:55:00,
2013-01-03 11:00:00,50.2,46.2,29.97,WNW,286,2.0,3.0,86,0.00,,,0.00,HomebrewedOnLinux,2013-01-03 16:00:00,
2013-01-03 11:05:00,50.2,46.2,29.97,WNW,302,1.0,2.0,86,0.00,,,0.00,HomebrewedOnLinux,2013-01-03 16:05:00,
2013-01-03 11:10:00,50.2,46.0,29.97,NNW,335,0.0,1.0,85,0.00,,,0.00,HomebrewedOnLinux,2013-01-03 16:10:00,
2013-01-03 11:15:00,50.2,45.8,29.97,NNW,338,0.0,0.0,85,0.00,,,0.00,HomebrewedOnLinux,2013-01-03 16:15:00,
2013-01-03 11:20:00,50.2,45.8,29.97,NNW,334,0.0,0.0,85,0.00,,,0.00,HomebrewedOnLinux,2013-01-03 16:20:00,
2013-01-03 11:25:00,50.2,45.5,29.97,NNW,338,0.0,0.0,84,0.00,,,0.00,HomebrewedOnLinux,2013-01-03 16:25:00,
2013-01-03 11:30:00,50.2,45.5,29.97,NW,316,0.0,2.0,84,0.00,,,0.00,HomebrewedOnLinux,2013-01-03 16:30:00,
2013-01-03 11:35:00,50.2,45.5,29.97,WNW,289,2.0,3.0,84,0.00,,,0.00,HomebrewedOnLinux,2013-01-03 16:35:00,
2013-01-03 11:40:00,50.2,45.5,29.97,NW,308,1.0,2.0,84,0.00,,,0.00,HomebrewedOnLinux,2013-01-03 16:40:00,
2013-01-03 11:45:00,50.4,45.7,29.97,NNW,331,1.0,3.0,84,0.00,,,0.00,HomebrewedOnLinux,2013-01-03 16:45:00,
2013-01-03 11:50:00,50.4,45.6,29.97,WNW,287,2.0,3.0,84,0.00,,,0.00,HomebrewedOnLinux,2013-01-03 16:50:00,
2013-01-03 11:55:00,50.4,45.6,29.97,NW,312,1.0,3.0,84,0.00,,,0.00,HomebrewedOnLinux,2013-01-03 16:55:00,
2013-01-03 12:00:00,50.4,45.4,29.97,SSW,196,0.0,1.0,83,0.00,,,0.00,HomebrewedOnLinux,2013-01-03 17:00:00,
2013-01-03 12:05:00,50.4,45.6,29.97,NNE,32,1.0,2.0,84,0.00,,,0.00,HomebrewedOnLinux,2013-01-03 17:05:00,
2013-01-03 12:10:00,50.4,45.2,29.97,NNE,18,1.0,2.0,82,0.00,,,0.00,HomebrewedOnLinux,2013-01-03 17:10:00,
2013-01-03 12:15:00,50.4,45.0,29.97,North,7,0.0,0.0,82,0.00,,,0.00,HomebrewedOnLinux,2013-01-03 17:15:00,
2013-01-03 12:20:00,50.4,45.1,29.97,NW,321,1.0,2.0,82,0.00,,,0.00,HomebrewedOnLinux,2013-01-03 17:20:00,
2013-01-03 12:25:00,50.4,45.0,29.97,North,6,0.0,2.0,82,0.00,,,0.00,HomebrewedOnLinux,2013-01-03 17:25:00,
2013-01-03 12:30:00,50.2,44.6,29.97,North,5,1.0,2.0,81,0.00,,,0.00,HomebrewedOnLinux,2013-01-03 17:30:00,
2013-01-03 12:35:00,50.4,44.9,29.97,NW,308,0.0,2.0,82,0.00,,,0.00,HomebrewedOnLinux,2013-01-03 17:35:00,
2013-01-03 12:40:00,50.4,44.9,29.94,WNW,288,1.0,2.0,81,0.00,,,0.00,HomebrewedOnLinux,2013-01-03 17:40:00,
2013-01-03 12:45:00,50.5,45.3,29.94,WSW,257,2.0,3.0,82,0.00,,,0.00,HomebrewedOnLinux,2013-01-03 17:45:00,
2013-01-03 12:50:00,50.7,45.4,29.94,NNE,29,1.0,2.0,82,0.00,,,0.00,HomebrewedOnLinux,2013-01-03 17:50:00,
2013-01-03 12:55:00,50.7,45.2,29.94,NNE,29,1.0,3.0,81,0.00,,,0.00,HomebrewedOnLinux,2013-01-03 17:55:00,
2013-01-03 13:00:00,50.5,44.9,29.94,ENE,61,0.0,1.0,81,0.00,,,0.00,HomebrewedOnLinux,2013-01-03 18:00:00,
2013-01-03 13:05:00,50.7,45.2,29.94,East,94,1.0,3.0,81,0.00,,,0.00,HomebrewedOnLinux,2013-01-03 18:05:00,
2013-01-03 13:10:00,50.7,45.4,29.94,NE,49,2.0,3.0,82,0.00,,,0.00,HomebrewedOnLinux,2013-01-03 18:10:00,
2013-01-03 13:15:00,50.7,45.1,29.94,NE,55,1.0,2.0,81,0.00,,,0.00,HomebrewedOnLinux,2013-01-03 18:15:00,
2013-01-03 13:20:00,50.9,45.1,29.94,North,-999,-999.0,-999.0,81,0.00,,,0.00,HomebrewedOnLinux,2013-01-03 18:20:00,
2013-01-03 13:25:00,50.9,44.9,29.94,North,-999,-999.0,-999.0,80,0.00,,,0.00,HomebrewedOnLinux,2013-01-03 18:25:00,
2013-01-03 13:30:00,50.9,44.7,29.94,North,-999,-999.0,-999.0,79,0.00,,,0.00,HomebrewedOnLinux,2013-01-03 18:30:00,
2013-01-03 13:35:00,50.9,44.6,29.94,North,-999,-999.0,-999.0,79,0.00,,,0.00,HomebrewedOnLinux,2013-01-03 18:35:00,
2013-01-03 13:40:00,50.9,44.3,29.94,North,-999,-999.0,-999.0,78,0.00,,,0.00,HomebrewedOnLinux,2013-01-03 18:40:00,
2013-01-03 13:45:00,50.9,44.6,29.94,ENE,68,2.0,2.0,79,0.00,,,0.00,HomebrewedOnLinux,2013-01-03 18:45:00,
2013-01-03 13:50:00,50.9,44.6,29.94,ENE,60,1.0,2.0,79,0.00,,,0.00,HomebrewedOnLinux,2013-01-03 18:50:00,
2013-01-03 13:55:00,51.1,44.7,29.91,NE,54,2.0,2.0,79,0.00,,,0.00,HomebrewedOnLinux,2013-01-03 18:55:00,
2013-01-03 14:00:00,51.1,44.2,29.91,WNW,293,0.0,1.0,77,0.00,,,0.00,HomebrewedOnLinux,2013-01-03 19:00:00,
2013-01-03 14:05:00,51.4,44.8,29.91,East,98,1.0,2.0,78,0.00,,,0.00,HomebrewedOnLinux,2013-01-03 19:05:00,
2013-01-03 14:10:00,51.4,44.8,29.91,ESE,109,1.0,2.0,78,0.00,,,0.00,HomebrewedOnLinux,2013-01-03 19:10:00,
2013-01-03 14:15:00,51.4,44.8,29.91,ENE,58,1.0,3.0,78,0.00,,,0.00,HomebrewedOnLinux,2013-01-03 19:15:00,
2013-01-03 14:45:00,51.6,44.2,29.91,NNW,342,0.0,0.0,76,0.00,,,0.00,HomebrewedOnLinux,2013-01-03 19:45:00,
2013-01-03 14:55:00,51.6,44.0,29.91,North,352,0.0,2.0,75,0.00,,,0.00,HomebrewedOnLinux,2013-01-03 19:55:00,
2013-01-03 15:05:00,51.6,44.2,29.91,NNW,328,0.0,2.0,76,0.00,,,0.00,HomebrewedOnLinux,2013-01-03 20:05:00,
2013-01-03 15:10:00,51.6,44.2,29.91,NNE,29,2.0,3.0,76,0.00,,,0.00,HomebrewedOnLinux,2013-01-03 20:10:00,
2013-01-03 15:15:00,51.6,44.3,29.91,NNE,30,1.0,2.0,76,0.00,,,0.00,HomebrewedOnLinux,2013-01-03 20:15:00,
2013-01-03 15:20:00,51.6,44.3,29.91,East,83,2.0,2.0,76,0.00,,,0.00,HomebrewedOnLinux,2013-01-03 20:20:00,
2013-01-03 15:25:00,51.6,44.2,29.91,East,96,2.0,3.0,76,0.00,,,0.00,HomebrewedOnLinux,2013-01-03 20:25:00,
2013-01-03 15:30:00,51.4,43.8,29.91,ENE,66,1.0,2.0,75,0.00,,,0.00,HomebrewedOnLinux,2013-01-03 20:30:00,
2013-01-03 15:35:00,51.4,43.8,29.91,NE,49,1.0,2.0,75,0.00,,,0.00,HomebrewedOnLinux,2013-01-03 20:35:00,
2013-01-03 15:40:00,51.4,43.8,29.94,ENE,60,1.0,2.0,75,0.00,,,0.00,HomebrewedOnLinux,2013-01-03 20:40:00,
2013-01-03 15:45:00,51.4,43.8,29.94,NE,50,1.0,3.0,75,0.00,,,0.00,HomebrewedOnLinux,2013-01-03 20:45:00,
2013-01-03 15:50:00,51.3,43.4,29.94,NE,50,2.0,3.0,74,0.00,,,0.00,HomebrewedOnLinux,2013-01-03 20:50:00,
2013-01-03 15:55:00,51.1,42.8,29.94,NNW,343,0.0,2.0,73,0.00,,,0.00,HomebrewedOnLinux,2013-01-03 20:55:00,
2013-01-03 16:00:00,51.1,43.0,29.94,North,9,1.0,2.0,74,0.00,,,0.00,HomebrewedOnLinux,2013-01-03 21:00:00,
2013-01-03 16:10:00,50.9,42.9,29.94,NNE,23,1.0,3.0,74,0.00,,,0.00,HomebrewedOnLinux,2013-01-03 21:10:00,
2013-01-03 16:15:00,50.9,42.9,29.94,NE,44,2.0,3.0,74,0.00,,,0.00,HomebrewedOnLinux,2013-01-03 21:15:00,
2013-01-03 16:20:00,50.9,42.9,29.94,ENE,60,2.0,3.0,74,0.00,,,0.00,HomebrewedOnLinux,2013-01-03 21:20:00,
2013-01-03 16:25:00,50.7,42.7,29.94,NE,50,2.0,4.0,74,0.00,,,0.00,HomebrewedOnLinux,2013-01-03 21:25:00,
2013-01-03 16:30:00,50.7,42.7,29.94,ENE,64,2.0,2.0,74,0.00,,,0.00,HomebrewedOnLinux,2013-01-03 21:30:00,
2013-01-03 16:35:00,50.7,42.9,29.94,NE,54,1.0,2.0,75,0.00,,,0.00,HomebrewedOnLinux,2013-01-03 21:35:00,
2013-01-03 16:40:00,50.5,42.9,29.97,NE,48,2.0,3.0,75,0.00,,,0.00,HomebrewedOnLinux,2013-01-03 21:40:00,
2013-01-03 16:45:00,50.5,42.9,29.97,ENE,61,2.0,3.0,75,0.00,,,0.00,HomebrewedOnLinux,2013-01-03 21:45:00,
2013-01-03 16:50:00,50.5,42.9,29.97,ENE,64,2.0,3.0,75,0.00,,,0.00,HomebrewedOnLinux,2013-01-03 21:50:00,
2013-01-03 16:55:00,50.4,42.7,29.97,NE,43,2.0,4.0,75,0.00,,,0.00,HomebrewedOnLinux,2013-01-03 21:55:00,
2013-01-03 17:00:00,50.2,42.6,29.97,NNE,24,1.0,3.0,75,0.00,,,0.00,HomebrewedOnLinux,2013-01-03 22:00:00,
2013-01-03 17:05:00,50.2,42.6,29.97,NNE,22,0.0,1.0,75,0.00,,,0.00,HomebrewedOnLinux,2013-01-03 22:05:00,
2013-01-03 17:10:00,50.2,42.9,30.00,North,11,0.0,2.0,76,0.00,,,0.00,HomebrewedOnLinux,2013-01-03 22:10:00,
2013-01-03 17:15:00,50.0,42.7,30.00,North,7,0.0,0.0,76,0.00,,,0.00,HomebrewedOnLinux,2013-01-03 22:15:00,
2013-01-03 17:20:00,50.0,42.8,30.00,NNE,22,0.0,0.0,76,0.00,,,0.00,HomebrewedOnLinux,2013-01-03 22:20:00,
2013-01-03 17:25:00,49.8,42.9,29.94,NNE,18,0.0,1.0,77,0.00,,,0.00,HomebrewedOnLinux,2013-01-03 22:25:00,
2013-01-03 17:30:00,49.8,43.2,29.94,North,353,0.0,0.0,78,0.00,,,0.00,HomebrewedOnLinux,2013-01-03 22:30:00,
2013-01-03 17:40:00,49.6,43.1,29.94,North,6,0.0,1.0,78,0.00,,,0.00,HomebrewedOnLinux,2013-01-03 22:40:00,
2013-01-03 17:45:00,49.5,43.2,29.94,NNE,22,0.0,0.0,79,0.00,,,0.00,HomebrewedOnLinux,2013-01-03 22:45:00,
2013-01-03 17:50:00,49.5,43.3,29.94,NNE,22,0.0,0.0,79,0.00,,,0.00,HomebrewedOnLinux,2013-01-03 22:50:00,
2013-01-03 17:55:00,49.3,43.4,29.97,NNE,22,0.0,0.0,80,0.00,,,0.00,HomebrewedOnLinux,2013-01-03 22:55:00,
2013-01-03 18:00:00,49.3,43.4,29.97,NNE,22,0.0,0.0,80,0.00,,,0.00,HomebrewedOnLinux,2013-01-03 23:00:00,
2013-01-03 18:05:00,49.1,43.2,29.97,NNE,20,0.0,0.0,80,0.00,,,0.00,HomebrewedOnLinux,2013-01-03 23:05:00,
2013-01-03 18:10:00,49.1,43.2,30.00,NNE,19,0.0,0.0,80,0.00,,,0.00,HomebrewedOnLinux,2013-01-03 23:10:00,
2013-01-03 18:15:00,49.1,43.5,30.00,NNE,22,0.0,0.0,81,0.00,,,0.00,HomebrewedOnLinux,2013-01-03 23:15:00,
2013-01-03 18:20:00,48.9,43.3,30.00,NNE,15,0.0,2.0,81,0.00,,,0.00,HomebrewedOnLinux,2013-01-03 23:20:00,
2013-01-03 18:25:00,48.9,43.3,30.00,NNE,20,0.0,2.0,81,0.00,,,0.00,HomebrewedOnLinux,2013-01-03 23:25:00,
2013-01-03 18:30:00,48.9,43.5,30.00,North,0,0.0,0.0,81,0.00,,,0.00,HomebrewedOnLinux,2013-01-03 23:30:00,
2013-01-03 18:35:00,48.7,43.5,30.00,NNE,19,0.0,0.0,82,0.00,,,0.00,HomebrewedOnLinux,2013-01-03 23:35:00,
2013-01-03 18:40:00,48.7,43.5,30.03,NNE,22,0.0,0.0,82,0.00,,,0.00,HomebrewedOnLinux,2013-01-03 23:40:00,
2013-01-03 18:45:00,48.7,43.5,30.03,NNE,22,0.0,0.0,82,0.00,,,0.00,HomebrewedOnLinux,2013-01-03 23:45:00,
2013-01-03 18:50:00,48.7,43.6,30.03,NNE,22,0.0,0.0,82,0.00,,,0.00,HomebrewedOnLinux,2013-01-03 23:50:00,
2013-01-03 18:55:00,48.7,43.5,30.03,North,9,0.0,0.0,82,0.00,,,0.00,HomebrewedOnLinux,2013-01-03 23:55:00,
2013-01-03 19:00:00,48.6,43.3,30.03,NNW,338,0.0,0.0,82,0.00,,,0.00,HomebrewedOnLinux,2013-01-04 00:00:00,
2013-01-03 19:05:00,48.6,43.3,30.03,North,355,0.0,1.0,82,0.00,,,0.00,HomebrewedOnLinux,2013-01-04 00:05:00,
2013-01-03 19:10:00,48.6,43.4,30.03,ENE,68,0.0,0.0,82,0.00,,,0.00,HomebrewedOnLinux,2013-01-04 00:10:00,
2013-01-03 19:15:00,48.6,43.6,30.03,ENE,68,0.0,0.0,83,0.00,,,0.00,HomebrewedOnLinux,2013-01-04 00:15:00,
2013-01-03 19:20:00,48.6,43.6,30.03,ENE,68,0.0,0.0,83,0.00,,,0.00,HomebrewedOnLinux,2013-01-04 00:20:00,
2013-01-03 19:25:00,48.7,43.8,30.03,ENE,68,0.0,0.0,83,0.00,,,0.00,HomebrewedOnLinux,2013-01-04 00:25:00,
2013-01-03 19:30:00,48.7,44.1,30.03,ENE,68,0.0,0.0,84,0.00,,,0.00,HomebrewedOnLinux,2013-01-04 00:30:00,
2013-01-03 19:35:00,48.7,44.1,30.03,ENE,68,0.0,0.0,84,0.00,,,0.00,HomebrewedOnLinux,2013-01-04 00:35:00,
2013-01-03 19:40:00,48.6,43.9,30.03,ENE,68,0.0,0.0,84,0.00,,,0.00,HomebrewedOnLinux,2013-01-04 00:40:00,
2013-01-03 19:45:00,48.6,43.9,30.03,North,355,0.0,0.0,84,0.00,,,0.00,HomebrewedOnLinux,2013-01-04 00:45:00,
2013-01-03 19:50:00,48.4,43.8,30.03,West,270,0.0,0.0,84,0.00,,,0.00,HomebrewedOnLinux,2013-01-04 00:50:00,
2013-01-03 19:55:00,48.4,44.0,30.00,West,279,0.0,0.0,85,0.00,,,0.00,HomebrewedOnLinux,2013-01-04 00:55:00,
2013-01-03 20:00:00,48.4,44.1,30.00,WNW,293,0.0,0.0,85,0.00,,,0.00,HomebrewedOnLinux,2013-01-04 01:00:00,
2013-01-03 20:10:00,48.2,43.9,30.03,WNW,293,0.0,0.0,85,0.00,,,0.00,HomebrewedOnLinux,2013-01-04 01:10:00,
2013-01-03 20:15:00,48.2,43.9,30.03,WNW,293,0.0,0.0,85,0.00,,,0.00,HomebrewedOnLinux,2013-01-04 01:15:00,
2013-01-03 20:20:00,48.2,43.9,30.03,NW,313,0.0,0.0,85,0.00,,,0.00,HomebrewedOnLinux,2013-01-04 01:20:00,
2013-01-03 20:25:00,48.4,44.1,30.03,NW,315,0.0,0.0,85,0.00,,,0.00,HomebrewedOnLinux,2013-01-04 01:25:00,
2013-01-03 20:30:00,48.4,44.1,30.03,NW,315,0.0,0.0,85,0.00,,,0.00,HomebrewedOnLinux,2013-01-04 01:30:00,
2013-01-03 20:35:00,48.6,44.3,30.03,NW,315,0.0,0.0,85,0.00,,,0.00,HomebrewedOnLinux,2013-01-04 01:35:00,
2013-01-03 20:40:00,48.6,44.3,30.06,NNW,343,0.0,0.0,85,0.00,,,0.00,HomebrewedOnLinux,2013-01-04 01:40:00,
2013-01-03 20:45:00,48.6,44.3,30.06,NNE,27,0.0,1.0,85,0.00,,,0.00,HomebrewedOnLinux,2013-01-04 01:45:00,
2013-01-03 20:50:00,48.7,44.4,30.06,NE,46,0.0,0.0,85,0.00,,,0.00,HomebrewedOnLinux,2013-01-04 01:50:00,
2013-01-03 20:55:00,48.7,44.4,30.06,East,82,1.0,2.0,85,0.00,,,0.00,HomebrewedOnLinux,2013-01-04 01:55:00,
2013-01-03 21:00:00,48.7,44.4,30.06,ENE,59,1.0,1.0,85,0.00,,,0.00,HomebrewedOnLinux,2013-01-04 02:00:00,
2013-01-03 21:05:00,48.7,44.4,30.06,ENE,58,1.0,2.0,85,0.00,,,0.00,HomebrewedOnLinux,2013-01-04 02:05:00,
2013-01-03 21:10:00,48.7,44.4,30.06,ENE,59,2.0,3.0,85,0.00,,,0.00,HomebrewedOnLinux,2013-01-04 02:10:00,
2013-01-03 21:15:00,48.7,44.4,30.06,East,85,1.0,2.0,85,0.00,,,0.00,HomebrewedOnLinux,2013-01-04 02:15:00,
2013-01-03 21:20:00,48.7,44.4,30.06,East,80,2.0,3.0,85,0.00,,,0.00,HomebrewedOnLinux,2013-01-04 02:20:00,
2013-01-03 21:25:00,48.6,44.3,30.06,East,87,1.0,3.0,85,0.00,,,0.00,HomebrewedOnLinux,2013-01-04 02:25:00,
2013-01-03 21:30:00,48.6,44.3,30.06,East,93,1.0,2.0,85,0.00,,,0.00,HomebrewedOnLinux,2013-01-04 02:30:00,
2013-01-03 21:35:00,48.6,44.3,30.06,ENE,68,2.0,3.0,85,0.00,,,0.00,HomebrewedOnLinux,2013-01-04 02:35:00,
2013-01-03 21:40:00,48.4,44.1,30.06,East,85,2.0,3.0,85,0.00,,,0.00,HomebrewedOnLinux,2013-01-04 02:40:00,
2013-01-03 21:45:00,48.4,44.1,30.06,ESE,106,2.0,3.0,85,0.00,,,0.00,HomebrewedOnLinux,2013-01-04 02:45:00,
2013-01-03 21:50:00,48.4,44.1,30.06,East,89,2.0,2.0,85,0.00,,,0.00,HomebrewedOnLinux,2013-01-04 02:50:00,
2013-01-03 21:55:00,48.2,43.9,30.06,East,89,2.0,2.0,85,0.00,,,0.00,HomebrewedOnLinux,2013-01-04 02:55:00,
2013-01-03 22:00:00,48.0,43.9,30.06,East,91,1.0,2.0,86,0.00,,,0.00,HomebrewedOnLinux,2013-01-04 03:00:00,
2013-01-03 22:05:00,48.0,44.0,30.06,East,80,1.0,2.0,86,0.00,,,0.00,HomebrewedOnLinux,2013-01-04 03:05:00,
2013-01-03 22:10:00,48.0,44.0,30.06,East,95,1.0,2.0,86,0.00,,,0.00,HomebrewedOnLinux,2013-01-04 03:10:00,
2013-01-03 22:15:00,48.0,44.0,30.06,ENE,70,0.0,0.0,86,0.00,,,0.00,HomebrewedOnLinux,2013-01-04 03:15:00,
2013-01-03 22:20:00,47.8,43.6,30.06,East,88,1.0,2.0,85,0.00,,,0.00,HomebrewedOnLinux,2013-01-04 03:20:00,
2013-01-03 22:25:00,47.8,43.6,30.06,East,94,1.0,3.0,85,0.00,,,0.00,HomebrewedOnLinux,2013-01-04 03:25:00,
2013-01-03 22:30:00,47.7,43.4,30.06,East,79,2.0,3.0,85,0.00,,,0.00,HomebrewedOnLinux,2013-01-04 03:30:00,
2013-01-03 22:35:00,47.7,43.4,30.06,East,98,1.0,2.0,85,0.00,,,0.00,HomebrewedOnLinux,2013-01-04 03:35:00,
2013-01-03 22:40:00,47.7,43.4,30.09,ESE,113,1.0,2.0,85,0.00,,,0.00,HomebrewedOnLinux,2013-01-04 03:40:00,
2013-01-03 22:45:00,47.7,43.4,30.09,ESE,102,1.0,3.0,85,0.00,,,0.00,HomebrewedOnLinux,2013-01-04 03:45:00,
2013-01-03 22:50:00,47.7,43.4,30.09,ENE,77,1.0,2.0,85,0.00,,,0.00,HomebrewedOnLinux,2013-01-04 03:50:00,
2013-01-03 22:55:00,47.7,43.4,30.06,East,92,1.0,3.0,85,0.00,,,0.00,HomebrewedOnLinux,2013-01-04 03:55:00,
2013-01-03 23:00:00,47.5,43.0,30.06,East,88,2.0,4.0,84,0.00,,,0.00,HomebrewedOnLinux,2013-01-04 04:00:00,
2013-01-03 23:05:00,47.5,42.9,30.06,East,98,2.0,3.0,84,0.00,,,0.00,HomebrewedOnLinux,2013-01-04 04:05:00,
2013-01-03 23:10:00,47.5,42.9,30.09,East,90,1.0,3.0,84,0.00,,,0.00,HomebrewedOnLinux,2013-01-04 04:10:00,
2013-01-03 23:15:00,47.5,42.9,30.09,East,79,0.0,2.0,84,0.00,,,0.00,HomebrewedOnLinux,2013-01-04 04:15:00,
2013-01-03 23:20:00,47.3,42.9,30.09,ENE,65,1.0,3.0,84,0.00,,,0.00,HomebrewedOnLinux,2013-01-04 04:20:00,
2013-01-03 23:25:00,47.3,42.7,30.06,East,80,1.0,2.0,84,0.00,,,0.00,HomebrewedOnLinux,2013-01-04 04:25:00,
2013-01-03 23:30:00,47.3,42.9,30.06,East,95,1.0,2.0,85,0.00,,,0.00,HomebrewedOnLinux,2013-01-04 04:30:00,
2013-01-03 23:35:00,47.3,42.7,30.06,ENE,68,1.0,3.0,84,0.00,,,0.00,HomebrewedOnLinux,2013-01-04 04:35:00,
2013-01-03 23:40:00,47.3,43.0,30.06,SE,140,0.0,1.0,85,0.00,,,0.00,HomebrewedOnLinux,2013-01-04 04:40:00,
2013-01-03 23:45:00,46.9,42.5,30.06,ESE,113,0.0,0.0,84,0.00,,,0.00,HomebrewedOnLinux,2013-01-04 04:45:00,
2013-01-03 23:50:00,46.6,42.0,30.06,East,85,0.0,0.0,84,0.00,,,0.00,HomebrewedOnLinux,2013-01-04 04:50:00,
2013-01-03 23:55:00,46.4,41.8,30.06,ESE,110,0.0,0.0,84,0.00,,,0.00,HomebrewedOnLinux,2013-01-04 04:55:00,